sensor_id;sensor_type;location;lat;lon;timestamp;P1;durP1;ratioP1;P2;durP2;ratioP2
6392;SDS011;3229;42.674;23.282;2023-12-22T00:01:16;36.10;;;20.57;;
6392;SDS011;3229;42.674;23.282;2023-12-22T00:03:43;30.07;;;19.23;;
6392;SDS011;3229;42.674;23.282;2023-12-22T00:06:12;31.73;;;19.20;;
6392;SDS011;3229;42.674;23.282;2023-12-22T00:08:39;31.00;;;18.83;;
6392;SDS011;3229;42.674;23.282;2023-12-22T00:11:06;30.03;;;19.23;;
6392;SDS011;3229;42.674;23.282;2023-12-22T00:13:32;31.20;;;18.63;;
6392;SDS011;3229;42.674;23.282;2023-12-22T00:15:59;28.57;;;17.87;;
6392;SDS011;3229;42.674;23.282;2023-12-22T00:18:26;28.77;;;17.87;;
6392;SDS011;3229;42.674;23.282;2023-12-22T00:20:53;27.93;;;17.57;;
6392;SDS011;3229;42.674;23.282;2023-12-22T00:23:21;29.80;;;17.30;;
6392;SDS011;3229;42.674;23.282;2023-12-22T00:25:48;30.50;;;17.33;;
6392;SDS011;3229;42.674;23.282;2023-12-22T00:28:15;24.30;;;15.83;;
6392;SDS011;3229;42.674;23.282;2023-12-22T00:30:42;28.37;;;15.43;;
6392;SDS011;3229;42.674;23.282;2023-12-22T00:33:09;23.57;;;15.53;;
6392;SDS011;3229;42.674;23.282;2023-12-22T00:35:35;22.63;;;14.20;;
6392;SDS011;3229;42.674;23.282;2023-12-22T00:38:03;23.63;;;14.97;;
6392;SDS011;3229;42.674;23.282;2023-12-22T00:40:31;22.70;;;14.80;;
6392;SDS011;3229;42.674;23.282;2023-12-22T00:42:59;24.00;;;15.57;;
6392;SDS011;3229;42.674;23.282;2023-12-22T00:45:25;27.23;;;16.07;;
6392;SDS011;3229;42.674;23.282;2023-12-22T00:47:52;27.10;;;15.57;;
6392;SDS011;3229;42.674;23.282;2023-12-22T00:50:19;24.53;;;14.10;;
6392;SDS011;3229;42.674;23.282;2023-12-22T00:52:46;24.13;;;15.07;;
6392;SDS011;3229;42.674;23.282;2023-12-22T00:55:13;23.17;;;13.47;;
6392;SDS011;3229;42.674;23.282;2023-12-22T00:57:41;21.77;;;13.70;;
6392;SDS011;3229;42.674;23.282;2023-12-22T01:00:09;24.43;;;14.90;;
6392;SDS011;3229;42.674;23.282;2023-12-22T01:02:37;19.80;;;13.50;;
6392;SDS011;3229;42.674;23.282;2023-12-22T01:05:04;21.27;;;13.43;;
6392;SDS011;3229;42.674;23.282;2023-12-22T01:07:31;22.00;;;13.27;;
6392;SDS011;3229;42.674;23.282;2023-12-22T01:09:58;26.13;;;13.60;;
6392;SDS011;3229;42.674;23.282;2023-12-22T01:12:26;20.70;;;12.60;;
6392;SDS011;3229;42.674;23.282;2023-12-22T01:14:54;19.47;;;13.00;;
6392;SDS011;3229;42.674;23.282;2023-12-22T01:17:21;21.60;;;12.80;;
6392;SDS011;3229;42.674;23.282;2023-12-22T01:19:48;19.13;;;12.43;;
6392;SDS011;3229;42.674;23.282;2023-12-22T01:22:16;22.33;;;12.90;;
6392;SDS011;3229;42.674;23.282;2023-12-22T01:24:43;23.43;;;13.33;;
6392;SDS011;3229;42.674;23.282;2023-12-22T01:27:10;21.70;;;12.83;;
6392;SDS011;3229;42.674;23.282;2023-12-22T01:29:37;18.43;;;11.83;;
6392;SDS011;3229;42.674;23.282;2023-12-22T01:32:06;17.97;;;12.00;;
6392;SDS011;3229;42.674;23.282;2023-12-22T01:34:32;21.73;;;12.27;;
6392;SDS011;3229;42.674;23.282;2023-12-22T01:36:59;22.77;;;11.70;;
6392;SDS011;3229;42.674;23.282;2023-12-22T01:39:26;17.27;;;12.07;;
6392;SDS011;3229;42.674;23.282;2023-12-22T01:41:53;17.67;;;12.73;;
6392;SDS011;3229;42.674;23.282;2023-12-22T01:44:19;18.17;;;11.83;;
6392;SDS011;3229;42.674;23.282;2023-12-22T01:46:46;20.77;;;12.33;;
6392;SDS011;3229;42.674;23.282;2023-12-22T01:49:14;17.40;;;11.73;;
6392;SDS011;3229;42.674;23.282;2023-12-22T01:51:41;17.77;;;10.93;;
6392;SDS011;3229;42.674;23.282;2023-12-22T01:54:09;17.33;;;11.27;;
6392;SDS011;3229;42.674;23.282;2023-12-22T01:56:38;20.67;;;11.17;;
6392;SDS011;3229;42.674;23.282;2023-12-22T01:59:05;17.03;;;11.60;;
6392;SDS011;3229;42.674;23.282;2023-12-22T02:01:33;15.73;;;10.83;;
6392;SDS011;3229;42.674;23.282;2023-12-22T02:03:59;19.53;;;10.93;;
6392;SDS011;3229;42.674;23.282;2023-12-22T02:06:28;21.73;;;11.60;;
6392;SDS011;3229;42.674;23.282;2023-12-22T02:08:56;17.40;;;9.93;;
6392;SDS011;3229;42.674;23.282;2023-12-22T02:11:24;15.63;;;10.23;;
6392;SDS011;3229;42.674;23.282;2023-12-22T02:13:51;15.17;;;10.47;;
6392;SDS011;3229;42.674;23.282;2023-12-22T02:16:18;15.23;;;10.43;;
6392;SDS011;3229;42.674;23.282;2023-12-22T02:18:52;15.47;;;10.17;;
6392;SDS011;3229;42.674;23.282;2023-12-22T02:21:22;15.10;;;10.50;;
6392;SDS011;3229;42.674;23.282;2023-12-22T02:23:50;18.03;;;10.63;;
6392;SDS011;3229;42.674;23.282;2023-12-22T02:26:17;17.67;;;11.43;;
6392;SDS011;3229;42.674;23.282;2023-12-22T02:28:51;18.03;;;10.77;;
6392;SDS011;3229;42.674;23.282;2023-12-22T02:31:20;17.43;;;10.33;;
6392;SDS011;3229;42.674;23.282;2023-12-22T02:33:54;16.20;;;10.07;;
6392;SDS011;3229;42.674;23.282;2023-12-22T02:36:23;16.37;;;10.10;;
6392;SDS011;3229;42.674;23.282;2023-12-22T02:38:53;15.07;;;10.37;;
6392;SDS011;3229;42.674;23.282;2023-12-22T02:41:22;15.43;;;10.37;;
6392;SDS011;3229;42.674;23.282;2023-12-22T02:43:49;15.00;;;10.07;;
6392;SDS011;3229;42.674;23.282;2023-12-22T02:46:18;17.07;;;10.97;;
6392;SDS011;3229;42.674;23.282;2023-12-22T02:48:44;19.10;;;10.23;;
6392;SDS011;3229;42.674;23.282;2023-12-22T02:51:11;14.90;;;9.60;;
6392;SDS011;3229;42.674;23.282;2023-12-22T02:53:38;14.87;;;9.83;;
6392;SDS011;3229;42.674;23.282;2023-12-22T02:56:06;13.53;;;9.97;;
6392;SDS011;3229;42.674;23.282;2023-12-22T02:58:33;16.53;;;10.80;;
6392;SDS011;3229;42.674;23.282;2023-12-22T03:01:00;13.57;;;9.53;;
6392;SDS011;3229;42.674;23.282;2023-12-22T03:03:27;15.17;;;10.87;;
6392;SDS011;3229;42.674;23.282;2023-12-22T03:05:53;16.53;;;9.70;;
6392;SDS011;3229;42.674;23.282;2023-12-22T03:08:20;15.77;;;9.97;;
6392;SDS011;3229;42.674;23.282;2023-12-22T03:10:47;17.20;;;9.77;;
6392;SDS011;3229;42.674;23.282;2023-12-22T03:13:15;16.33;;;9.83;;
6392;SDS011;3229;42.674;23.282;2023-12-22T03:15:42;15.53;;;9.33;;
6392;SDS011;3229;42.674;23.282;2023-12-22T03:18:09;15.17;;;9.83;;
6392;SDS011;3229;42.674;23.282;2023-12-22T03:20:35;17.20;;;10.87;;
6392;SDS011;3229;42.674;23.282;2023-12-22T03:23:03;15.47;;;10.27;;
6392;SDS011;3229;42.674;23.282;2023-12-22T03:25:30;15.23;;;9.60;;
6392;SDS011;3229;42.674;23.282;2023-12-22T03:27:57;15.47;;;10.23;;
6392;SDS011;3229;42.674;23.282;2023-12-22T03:30:25;15.17;;;10.30;;
6392;SDS011;3229;42.674;23.282;2023-12-22T03:32:52;16.43;;;9.43;;
6392;SDS011;3229;42.674;23.282;2023-12-22T03:35:18;15.03;;;9.73;;
6392;SDS011;3229;42.674;23.282;2023-12-22T03:37:45;18.77;;;9.47;;
6392;SDS011;3229;42.674;23.282;2023-12-22T03:40:12;13.87;;;9.20;;
6392;SDS011;3229;42.674;23.282;2023-12-22T03:42:39;15.33;;;9.93;;
6392;SDS011;3229;42.674;23.282;2023-12-22T03:45:06;14.03;;;10.03;;
6392;SDS011;3229;42.674;23.282;2023-12-22T03:47:34;15.83;;;10.53;;
6392;SDS011;3229;42.674;23.282;2023-12-22T03:50:01;13.57;;;9.50;;
6392;SDS011;3229;42.674;23.282;2023-12-22T03:52:28;13.53;;;9.50;;
6392;SDS011;3229;42.674;23.282;2023-12-22T03:54:54;14.60;;;9.90;;
6392;SDS011;3229;42.674;23.282;2023-12-22T03:57:22;14.30;;;9.40;;
6392;SDS011;3229;42.674;23.282;2023-12-22T03:59:48;15.17;;;9.87;;
6392;SDS011;3229;42.674;23.282;2023-12-22T04:02:15;17.67;;;11.03;;
6392;SDS011;3229;42.674;23.282;2023-12-22T04:04:43;13.53;;;9.83;;
6392;SDS011;3229;42.674;23.282;2023-12-22T04:07:10;12.33;;;9.63;;
6392;SDS011;3229;42.674;23.282;2023-12-22T04:09:37;15.87;;;10.97;;
6392;SDS011;3229;42.674;23.282;2023-12-22T04:12:05;13.27;;;9.87;;
6392;SDS011;3229;42.674;23.282;2023-12-22T04:14:32;14.27;;;9.90;;
6392;SDS011;3229;42.674;23.282;2023-12-22T04:16:58;13.60;;;10.57;;
6392;SDS011;3229;42.674;23.282;2023-12-22T04:19:25;13.60;;;10.00;;
6392;SDS011;3229;42.674;23.282;2023-12-22T04:21:53;13.57;;;10.33;;
6392;SDS011;3229;42.674;23.282;2023-12-22T04:24:20;14.60;;;9.93;;
6392;SDS011;3229;42.674;23.282;2023-12-22T04:26:47;13.50;;;9.77;;
6392;SDS011;3229;42.674;23.282;2023-12-22T04:29:14;13.30;;;9.60;;
6392;SDS011;3229;42.674;23.282;2023-12-22T04:31:41;13.57;;;9.83;;
6392;SDS011;3229;42.674;23.282;2023-12-22T04:34:07;16.67;;;10.30;;
6392;SDS011;3229;42.674;23.282;2023-12-22T04:36:35;13.80;;;9.63;;
6392;SDS011;3229;42.674;23.282;2023-12-22T04:39:03;14.50;;;10.20;;
6392;SDS011;3229;42.674;23.282;2023-12-22T04:41:30;15.03;;;9.43;;
6392;SDS011;3229;42.674;23.282;2023-12-22T04:43:56;13.47;;;8.80;;
6392;SDS011;3229;42.674;23.282;2023-12-22T04:46:28;13.57;;;9.53;;
6392;SDS011;3229;42.674;23.282;2023-12-22T04:48:54;16.60;;;10.27;;
6392;SDS011;3229;42.674;23.282;2023-12-22T04:51:21;12.93;;;9.43;;
6392;SDS011;3229;42.674;23.282;2023-12-22T04:53:48;10.23;;;8.97;;
6392;SDS011;3229;42.674;23.282;2023-12-22T04:56:16;14.80;;;9.43;;
6392;SDS011;3229;42.674;23.282;2023-12-22T04:58:43;14.50;;;9.87;;
6392;SDS011;3229;42.674;23.282;2023-12-22T05:01:09;12.60;;;9.17;;
6392;SDS011;3229;42.674;23.282;2023-12-22T05:03:36;12.73;;;9.27;;
6392;SDS011;3229;42.674;23.282;2023-12-22T05:06:03;13.30;;;10.20;;
6392;SDS011;3229;42.674;23.282;2023-12-22T05:08:30;14.00;;;9.20;;
6392;SDS011;3229;42.674;23.282;2023-12-22T05:10:57;16.43;;;9.77;;
6392;SDS011;3229;42.674;23.282;2023-12-22T05:13:25;11.37;;;9.03;;
6392;SDS011;3229;42.674;23.282;2023-12-22T05:15:52;13.27;;;9.50;;
6392;SDS011;3229;42.674;23.282;2023-12-22T05:18:18;16.33;;;9.73;;
6392;SDS011;3229;42.674;23.282;2023-12-22T05:20:45;13.77;;;10.10;;
6392;SDS011;3229;42.674;23.282;2023-12-22T05:23:12;12.87;;;8.83;;
6392;SDS011;3229;42.674;23.282;2023-12-22T05:25:39;14.43;;;9.03;;
6392;SDS011;3229;42.674;23.282;2023-12-22T05:28:05;14.63;;;9.77;;
6392;SDS011;3229;42.674;23.282;2023-12-22T05:30:34;12.83;;;9.03;;
6392;SDS011;3229;42.674;23.282;2023-12-22T05:33:00;12.17;;;8.70;;
6392;SDS011;3229;42.674;23.282;2023-12-22T05:35:27;13.50;;;9.27;;
6392;SDS011;3229;42.674;23.282;2023-12-22T05:37:54;13.30;;;9.67;;
6392;SDS011;3229;42.674;23.282;2023-12-22T05:40:20;13.77;;;9.40;;
6392;SDS011;3229;42.674;23.282;2023-12-22T05:42:47;13.33;;;8.90;;
6392;SDS011;3229;42.674;23.282;2023-12-22T05:45:14;14.30;;;9.40;;
6392;SDS011;3229;42.674;23.282;2023-12-22T05:47:42;12.83;;;8.43;;
6392;SDS011;3229;42.674;23.282;2023-12-22T05:50:09;13.63;;;8.57;;
6392;SDS011;3229;42.674;23.282;2023-12-22T05:52:37;13.17;;;9.10;;
6392;SDS011;3229;42.674;23.282;2023-12-22T05:55:04;12.40;;;8.63;;
6392;SDS011;3229;42.674;23.282;2023-12-22T05:57:33;13.00;;;8.57;;
6392;SDS011;3229;42.674;23.282;2023-12-22T06:00:00;12.20;;;9.03;;
6392;SDS011;3229;42.674;23.282;2023-12-22T06:02:29;13.60;;;8.63;;
6392;SDS011;3229;42.674;23.282;2023-12-22T06:04:57;12.60;;;8.50;;
6392;SDS011;3229;42.674;23.282;2023-12-22T06:07:24;12.77;;;8.57;;
6392;SDS011;3229;42.674;23.282;2023-12-22T06:09:51;12.80;;;9.30;;
6392;SDS011;3229;42.674;23.282;2023-12-22T06:12:18;15.27;;;9.83;;
6392;SDS011;3229;42.674;23.282;2023-12-22T06:14:44;11.03;;;8.60;;
6392;SDS011;3229;42.674;23.282;2023-12-22T06:17:11;12.90;;;8.73;;
6392;SDS011;3229;42.674;23.282;2023-12-22T06:19:38;16.73;;;9.87;;
6392;SDS011;3229;42.674;23.282;2023-12-22T06:22:06;14.70;;;9.13;;
6392;SDS011;3229;42.674;23.282;2023-12-22T06:24:34;17.77;;;8.70;;
6392;SDS011;3229;42.674;23.282;2023-12-22T06:27:01;15.27;;;9.03;;
6392;SDS011;3229;42.674;23.282;2023-12-22T06:29:28;15.13;;;9.10;;
6392;SDS011;3229;42.674;23.282;2023-12-22T06:31:55;11.47;;;8.77;;
6392;SDS011;3229;42.674;23.282;2023-12-22T06:34:22;13.90;;;9.37;;
6392;SDS011;3229;42.674;23.282;2023-12-22T06:36:50;14.57;;;8.60;;
6392;SDS011;3229;42.674;23.282;2023-12-22T06:39:19;14.53;;;8.97;;
6392;SDS011;3229;42.674;23.282;2023-12-22T06:41:46;12.47;;;8.77;;
6392;SDS011;3229;42.674;23.282;2023-12-22T06:44:13;11.83;;;8.73;;
6392;SDS011;3229;42.674;23.282;2023-12-22T06:46:39;14.30;;;8.73;;
6392;SDS011;3229;42.674;23.282;2023-12-22T06:49:06;11.67;;;9.37;;
6392;SDS011;3229;42.674;23.282;2023-12-22T06:51:33;11.40;;;8.73;;
6392;SDS011;3229;42.674;23.282;2023-12-22T06:54:00;13.47;;;8.97;;
6392;SDS011;3229;42.674;23.282;2023-12-22T06:56:30;16.47;;;9.57;;
6392;SDS011;3229;42.674;23.282;2023-12-22T06:58:59;13.77;;;8.67;;
6392;SDS011;3229;42.674;23.282;2023-12-22T07:01:27;13.80;;;8.53;;
6392;SDS011;3229;42.674;23.282;2023-12-22T07:03:54;12.37;;;8.97;;
6392;SDS011;3229;42.674;23.282;2023-12-22T07:06:22;11.50;;;8.70;;
6392;SDS011;3229;42.674;23.282;2023-12-22T07:08:57;12.77;;;8.83;;
6392;SDS011;3229;42.674;23.282;2023-12-22T07:11:41;13.20;;;8.87;;
6392;SDS011;3229;42.674;23.282;2023-12-22T07:14:08;14.80;;;8.97;;
6392;SDS011;3229;42.674;23.282;2023-12-22T07:16:36;12.30;;;9.10;;
6392;SDS011;3229;42.674;23.282;2023-12-22T07:19:03;11.47;;;8.23;;
6392;SDS011;3229;42.674;23.282;2023-12-22T07:21:30;12.73;;;8.97;;
6392;SDS011;3229;42.674;23.282;2023-12-22T07:23:56;14.33;;;8.90;;
6392;SDS011;3229;42.674;23.282;2023-12-22T07:26:24;13.43;;;8.43;;
6392;SDS011;3229;42.674;23.282;2023-12-22T07:28:53;13.13;;;8.90;;
6392;SDS011;3229;42.674;23.282;2023-12-22T07:31:20;12.63;;;9.57;;
6392;SDS011;3229;42.674;23.282;2023-12-22T07:33:47;12.33;;;9.10;;
6392;SDS011;3229;42.674;23.282;2023-12-22T07:36:14;11.50;;;8.47;;
6392;SDS011;3229;42.674;23.282;2023-12-22T07:38:40;13.90;;;9.73;;
6392;SDS011;3229;42.674;23.282;2023-12-22T07:41:07;11.40;;;8.50;;
6392;SDS011;3229;42.674;23.282;2023-12-22T07:43:34;15.57;;;10.13;;
6392;SDS011;3229;42.674;23.282;2023-12-22T07:46:02;11.67;;;8.43;;
6392;SDS011;3229;42.674;23.282;2023-12-22T07:48:30;14.40;;;8.90;;
6392;SDS011;3229;42.674;23.282;2023-12-22T07:50:57;14.13;;;9.10;;
6392;SDS011;3229;42.674;23.282;2023-12-22T07:53:23;16.37;;;9.50;;
6392;SDS011;3229;42.674;23.282;2023-12-22T07:55:50;16.10;;;9.53;;
6392;SDS011;3229;42.674;23.282;2023-12-22T07:58:17;12.53;;;8.90;;
6392;SDS011;3229;42.674;23.282;2023-12-22T08:00:44;15.93;;;9.83;;
6392;SDS011;3229;42.674;23.282;2023-12-22T08:03:13;15.97;;;9.87;;
6392;SDS011;3229;42.674;23.282;2023-12-22T08:05:40;12.00;;;8.70;;
6392;SDS011;3229;42.674;23.282;2023-12-22T08:08:07;16.83;;;9.67;;
6392;SDS011;3229;42.674;23.282;2023-12-22T08:10:34;14.23;;;9.30;;
6392;SDS011;3229;42.674;23.282;2023-12-22T08:13:01;18.23;;;10.43;;
6392;SDS011;3229;42.674;23.282;2023-12-22T08:15:27;17.23;;;10.13;;
6392;SDS011;3229;42.674;23.282;2023-12-22T08:17:54;15.47;;;8.83;;
6392;SDS011;3229;42.674;23.282;2023-12-22T08:20:22;16.17;;;10.13;;
6392;SDS011;3229;42.674;23.282;2023-12-22T08:22:49;14.10;;;9.70;;
6392;SDS011;3229;42.674;23.282;2023-12-22T08:25:16;11.63;;;8.67;;
6392;SDS011;3229;42.674;23.282;2023-12-22T08:27:45;15.40;;;9.63;;
6392;SDS011;3229;42.674;23.282;2023-12-22T08:30:12;14.90;;;9.60;;
6392;SDS011;3229;42.674;23.282;2023-12-22T08:32:39;12.13;;;8.20;;
6392;SDS011;3229;42.674;23.282;2023-12-22T08:35:07;14.23;;;9.67;;
6392;SDS011;3229;42.674;23.282;2023-12-22T08:37:35;11.93;;;9.33;;
6392;SDS011;3229;42.674;23.282;2023-12-22T08:40:02;15.30;;;9.87;;
6392;SDS011;3229;42.674;23.282;2023-12-22T08:42:31;13.57;;;9.17;;
6392;SDS011;3229;42.674;23.282;2023-12-22T08:44:58;12.37;;;8.87;;
6392;SDS011;3229;42.674;23.282;2023-12-22T08:47:24;10.50;;;8.53;;
6392;SDS011;3229;42.674;23.282;2023-12-22T08:49:51;19.13;;;10.53;;
6392;SDS011;3229;42.674;23.282;2023-12-22T08:52:18;11.23;;;8.60;;
6392;SDS011;3229;42.674;23.282;2023-12-22T08:54:46;14.83;;;9.53;;
6392;SDS011;3229;42.674;23.282;2023-12-22T08:57:13;13.70;;;10.03;;
6392;SDS011;3229;42.674;23.282;2023-12-22T08:59:39;16.20;;;9.87;;
6392;SDS011;3229;42.674;23.282;2023-12-22T09:02:06;19.00;;;10.07;;
6392;SDS011;3229;42.674;23.282;2023-12-22T09:04:33;15.43;;;10.00;;
6392;SDS011;3229;42.674;23.282;2023-12-22T09:07:00;13.77;;;9.77;;
6392;SDS011;3229;42.674;23.282;2023-12-22T09:09:27;18.70;;;10.10;;
6392;SDS011;3229;42.674;23.282;2023-12-22T09:11:55;14.37;;;9.97;;
6392;SDS011;3229;42.674;23.282;2023-12-22T09:14:21;11.87;;;8.80;;
6392;SDS011;3229;42.674;23.282;2023-12-22T09:16:48;11.33;;;8.80;;
6392;SDS011;3229;42.674;23.282;2023-12-22T09:19:16;15.17;;;9.80;;
6392;SDS011;3229;42.674;23.282;2023-12-22T09:21:43;14.50;;;10.03;;
6392;SDS011;3229;42.674;23.282;2023-12-22T09:24:10;17.00;;;9.60;;
6392;SDS011;3229;42.674;23.282;2023-12-22T09:26:37;16.27;;;9.70;;
6392;SDS011;3229;42.674;23.282;2023-12-22T09:29:06;16.43;;;9.43;;
6392;SDS011;3229;42.674;23.282;2023-12-22T09:31:32;16.93;;;10.17;;
6392;SDS011;3229;42.674;23.282;2023-12-22T09:33:59;13.73;;;10.37;;
6392;SDS011;3229;42.674;23.282;2023-12-22T09:36:26;12.43;;;9.97;;
6392;SDS011;3229;42.674;23.282;2023-12-22T09:38:53;12.33;;;9.43;;
6392;SDS011;3229;42.674;23.282;2023-12-22T09:41:19;21.00;;;10.77;;
6392;SDS011;3229;42.674;23.282;2023-12-22T09:43:46;15.23;;;9.63;;
6392;SDS011;3229;42.674;23.282;2023-12-22T09:46:19;16.33;;;10.10;;
6392;SDS011;3229;42.674;23.282;2023-12-22T09:48:47;13.93;;;10.20;;
6392;SDS011;3229;42.674;23.282;2023-12-22T09:51:17;15.13;;;10.73;;
6392;SDS011;3229;42.674;23.282;2023-12-22T09:53:45;16.77;;;10.73;;
6392;SDS011;3229;42.674;23.282;2023-12-22T09:56:13;15.17;;;10.10;;
6392;SDS011;3229;42.674;23.282;2023-12-22T09:58:41;13.93;;;9.70;;
6392;SDS011;3229;42.674;23.282;2023-12-22T10:01:08;14.80;;;10.30;;
6392;SDS011;3229;42.674;23.282;2023-12-22T10:03:37;17.20;;;9.80;;
6392;SDS011;3229;42.674;23.282;2023-12-22T10:06:04;18.90;;;10.00;;
6392;SDS011;3229;42.674;23.282;2023-12-22T10:08:32;19.53;;;9.83;;
6392;SDS011;3229;42.674;23.282;2023-12-22T10:10:59;15.20;;;9.13;;
6392;SDS011;3229;42.674;23.282;2023-12-22T10:13:26;16.17;;;10.80;;
6392;SDS011;3229;42.674;23.282;2023-12-22T10:15:53;16.80;;;10.50;;
6392;SDS011;3229;42.674;23.282;2023-12-22T10:18:21;19.47;;;10.40;;
6392;SDS011;3229;42.674;23.282;2023-12-22T10:20:49;17.07;;;10.60;;
6392;SDS011;3229;42.674;23.282;2023-12-22T10:23:16;16.40;;;10.60;;
6392;SDS011;3229;42.674;23.282;2023-12-22T10:25:43;16.33;;;11.20;;
6392;SDS011;3229;42.674;23.282;2023-12-22T10:28:11;16.13;;;11.53;;
6392;SDS011;3229;42.674;23.282;2023-12-22T10:30:39;21.03;;;12.60;;
6392;SDS011;3229;42.674;23.282;2023-12-22T10:33:06;19.53;;;11.20;;
6392;SDS011;3229;42.674;23.282;2023-12-22T10:35:33;17.03;;;11.53;;
6392;SDS011;3229;42.674;23.282;2023-12-22T10:38:01;15.53;;;10.70;;
6392;SDS011;3229;42.674;23.282;2023-12-22T10:40:30;15.63;;;10.07;;
6392;SDS011;3229;42.674;23.282;2023-12-22T10:42:58;11.90;;;9.80;;
6392;SDS011;3229;42.674;23.282;2023-12-22T10:45:25;12.67;;;9.57;;
6392;SDS011;3229;42.674;23.282;2023-12-22T10:47:54;14.20;;;9.00;;
6392;SDS011;3229;42.674;23.282;2023-12-22T10:50:21;11.00;;;8.00;;
6392;SDS011;3229;42.674;23.282;2023-12-22T10:52:49;11.03;;;8.37;;
6392;SDS011;3229;42.674;23.282;2023-12-22T10:55:18;10.53;;;7.10;;
6392;SDS011;3229;42.674;23.282;2023-12-22T10:57:46;11.33;;;7.40;;
6392;SDS011;3229;42.674;23.282;2023-12-22T11:00:14;8.27;;;6.73;;
6392;SDS011;3229;42.674;23.282;2023-12-22T11:02:43;11.50;;;7.20;;
6392;SDS011;3229;42.674;23.282;2023-12-22T11:05:13;10.13;;;6.93;;
6392;SDS011;3229;42.674;23.282;2023-12-22T11:07:42;7.53;;;5.63;;
6392;SDS011;3229;42.674;23.282;2023-12-22T11:10:14;7.40;;;5.83;;
6392;SDS011;3229;42.674;23.282;2023-12-22T11:12:47;7.93;;;5.67;;
6392;SDS011;3229;42.674;23.282;2023-12-22T11:15:14;6.47;;;5.33;;
6392;SDS011;3229;42.674;23.282;2023-12-22T11:17:42;5.23;;;4.73;;
6392;SDS011;3229;42.674;23.282;2023-12-22T11:20:09;6.37;;;5.33;;
6392;SDS011;3229;42.674;23.282;2023-12-22T11:22:38;6.37;;;4.83;;
6392;SDS011;3229;42.674;23.282;2023-12-22T11:25:06;6.07;;;4.80;;
6392;SDS011;3229;42.674;23.282;2023-12-22T11:27:36;5.03;;;4.20;;
6392;SDS011;3229;42.674;23.282;2023-12-22T11:30:04;5.83;;;4.50;;
6392;SDS011;3229;42.674;23.282;2023-12-22T11:32:33;7.97;;;4.50;;
6392;SDS011;3229;42.674;23.282;2023-12-22T11:35:00;4.57;;;4.07;;
6392;SDS011;3229;42.674;23.282;2023-12-22T11:37:28;6.57;;;3.90;;
6392;SDS011;3229;42.674;23.282;2023-12-22T11:39:58;4.90;;;3.90;;
6392;SDS011;3229;42.674;23.282;2023-12-22T11:42:26;5.83;;;4.17;;
6392;SDS011;3229;42.674;23.282;2023-12-22T11:45:00;5.83;;;4.10;;
6392;SDS011;3229;42.674;23.282;2023-12-22T11:47:27;4.73;;;3.60;;
6392;SDS011;3229;42.674;23.282;2023-12-22T11:49:55;4.80;;;3.63;;
6392;SDS011;3229;42.674;23.282;2023-12-22T11:52:25;4.10;;;3.40;;
6392;SDS011;3229;42.674;23.282;2023-12-22T11:54:53;4.33;;;3.50;;
6392;SDS011;3229;42.674;23.282;2023-12-22T11:57:31;3.37;;;2.97;;
6392;SDS011;3229;42.674;23.282;2023-12-22T12:00:05;3.63;;;3.17;;
6392;SDS011;3229;42.674;23.282;2023-12-22T12:02:34;3.57;;;2.73;;
6392;SDS011;3229;42.674;23.282;2023-12-22T12:05:03;2.80;;;2.60;;
6392;SDS011;3229;42.674;23.282;2023-12-22T12:07:37;3.93;;;2.87;;
6392;SDS011;3229;42.674;23.282;2023-12-22T12:10:05;2.73;;;2.50;;
6392;SDS011;3229;42.674;23.282;2023-12-22T12:12:33;4.00;;;2.60;;
6392;SDS011;3229;42.674;23.282;2023-12-22T12:15:05;5.37;;;2.80;;
6392;SDS011;3229;42.674;23.282;2023-12-22T12:17:38;3.30;;;2.60;;
6392;SDS011;3229;42.674;23.282;2023-12-22T12:20:07;2.97;;;2.43;;
6392;SDS011;3229;42.674;23.282;2023-12-22T12:22:36;3.00;;;2.70;;
6392;SDS011;3229;42.674;23.282;2023-12-22T12:25:07;3.93;;;2.60;;
6392;SDS011;3229;42.674;23.282;2023-12-22T12:27:35;3.03;;;2.07;;
6392;SDS011;3229;42.674;23.282;2023-12-22T12:30:13;2.40;;;2.20;;
6392;SDS011;3229;42.674;23.282;2023-12-22T12:32:41;3.23;;;2.43;;
6392;SDS011;3229;42.674;23.282;2023-12-22T12:35:10;2.80;;;2.27;;
6392;SDS011;3229;42.674;23.282;2023-12-22T12:37:38;2.47;;;2.23;;
6392;SDS011;3229;42.674;23.282;2023-12-22T12:40:07;2.33;;;2.13;;
6392;SDS011;3229;42.674;23.282;2023-12-22T12:42:35;2.40;;;2.20;;
6392;SDS011;3229;42.674;23.282;2023-12-22T12:45:03;2.50;;;2.30;;
6392;SDS011;3229;42.674;23.282;2023-12-22T12:47:32;2.60;;;2.37;;
6392;SDS011;3229;42.674;23.282;2023-12-22T12:49:59;2.50;;;2.00;;
6392;SDS011;3229;42.674;23.282;2023-12-22T12:52:26;2.43;;;2.17;;
6392;SDS011;3229;42.674;23.282;2023-12-22T12:54:52;2.70;;;1.90;;
6392;SDS011;3229;42.674;23.282;2023-12-22T12:57:21;2.30;;;2.10;;
6392;SDS011;3229;42.674;23.282;2023-12-22T12:59:48;4.40;;;2.20;;
6392;SDS011;3229;42.674;23.282;2023-12-22T13:02:15;2.30;;;2.03;;
6392;SDS011;3229;42.674;23.282;2023-12-22T13:04:44;2.13;;;2.03;;
6392;SDS011;3229;42.674;23.282;2023-12-22T13:07:11;3.07;;;2.40;;
6392;SDS011;3229;42.674;23.282;2023-12-22T13:09:39;2.20;;;2.10;;
6392;SDS011;3229;42.674;23.282;2023-12-22T13:12:07;2.40;;;2.20;;
6392;SDS011;3229;42.674;23.282;2023-12-22T13:14:34;3.13;;;2.27;;
6392;SDS011;3229;42.674;23.282;2023-12-22T13:17:01;2.70;;;2.10;;
6392;SDS011;3229;42.674;23.282;2023-12-22T13:19:29;2.50;;;2.30;;
6392;SDS011;3229;42.674;23.282;2023-12-22T13:21:57;2.13;;;1.97;;
6392;SDS011;3229;42.674;23.282;2023-12-22T13:24:25;2.77;;;2.50;;
6392;SDS011;3229;42.674;23.282;2023-12-22T13:26:59;1.80;;;1.70;;
6392;SDS011;3229;42.674;23.282;2023-12-22T13:29:28;2.27;;;2.07;;
6392;SDS011;3229;42.674;23.282;2023-12-22T13:31:56;2.07;;;1.97;;
6392;SDS011;3229;42.674;23.282;2023-12-22T13:34:23;2.67;;;2.17;;
6392;SDS011;3229;42.674;23.282;2023-12-22T13:36:51;2.30;;;2.10;;
6392;SDS011;3229;42.674;23.282;2023-12-22T13:39:20;3.17;;;1.90;;
6392;SDS011;3229;42.674;23.282;2023-12-22T13:41:54;2.23;;;2.07;;
6392;SDS011;3229;42.674;23.282;2023-12-22T13:44:21;2.40;;;2.20;;
6392;SDS011;3229;42.674;23.282;2023-12-22T13:46:48;2.60;;;2.40;;
6392;SDS011;3229;42.674;23.282;2023-12-22T13:49:15;2.73;;;2.43;;
6392;SDS011;3229;42.674;23.282;2023-12-22T13:51:42;2.17;;;2.00;;
6392;SDS011;3229;42.674;23.282;2023-12-22T13:54:12;2.27;;;2.10;;
6392;SDS011;3229;42.674;23.282;2023-12-22T13:56:41;2.03;;;1.93;;
6392;SDS011;3229;42.674;23.282;2023-12-22T13:59:11;3.40;;;2.20;;
6392;SDS011;3229;42.674;23.282;2023-12-22T14:01:38;2.63;;;2.40;;
6392;SDS011;3229;42.674;23.282;2023-12-22T14:04:05;2.30;;;2.10;;
6392;SDS011;3229;42.674;23.282;2023-12-22T14:06:35;2.60;;;2.40;;
6392;SDS011;3229;42.674;23.282;2023-12-22T14:09:02;1.97;;;1.87;;
6392;SDS011;3229;42.674;23.282;2023-12-22T14:11:29;3.07;;;2.77;;
6392;SDS011;3229;42.674;23.282;2023-12-22T14:14:00;2.40;;;2.17;;
6392;SDS011;3229;42.674;23.282;2023-12-22T14:19:02;2.37;;;2.17;;
6392;SDS011;3229;42.674;23.282;2023-12-22T14:21:29;4.10;;;2.40;;
6392;SDS011;3229;42.674;23.282;2023-12-22T14:23:55;2.40;;;2.20;;
6392;SDS011;3229;42.674;23.282;2023-12-22T14:26:22;3.30;;;2.20;;
6392;SDS011;3229;42.674;23.282;2023-12-22T14:28:49;4.03;;;2.10;;
6392;SDS011;3229;42.674;23.282;2023-12-22T14:31:18;2.60;;;2.00;;
6392;SDS011;3229;42.674;23.282;2023-12-22T14:33:46;2.73;;;2.53;;
6392;SDS011;3229;42.674;23.282;2023-12-22T14:36:13;2.37;;;2.17;;
6392;SDS011;3229;42.674;23.282;2023-12-22T14:38:40;2.63;;;2.30;;
6392;SDS011;3229;42.674;23.282;2023-12-22T14:41:06;2.57;;;2.37;;
6392;SDS011;3229;42.674;23.282;2023-12-22T14:43:33;2.50;;;2.30;;
6392;SDS011;3229;42.674;23.282;2023-12-22T14:46:00;2.50;;;2.30;;
6392;SDS011;3229;42.674;23.282;2023-12-22T14:48:28;3.30;;;2.00;;
6392;SDS011;3229;42.674;23.282;2023-12-22T14:50:55;2.63;;;2.20;;